Terminal Aerodrome Forecast
Issued by NWS Cleveland, OH

Home | Current Version | Previous Version | Text Only | Print | Product List | Glossary Off
Versions: 1 2 3 4 5 6 7 8 9 10 11 12 13 14 15 16 17 18 19 20 21 22 23 24 25 26

000
FTUS41 KCLE 011739
TAFMFD
TAF
KMFD 011739Z 0118/0218 28006KT P6SM SCT015 OVC035
      TEMPO 0118/0122 3SM BR BKN015
     FM012200 36006KT 3SM BR BKN006 OVC012
     FM020400 08003KT 2SM -SHRA BR VCTS OVC005CB
     FM021100 29005KT 1SM BR OVC003=

USA.gov is the U.S. government's official web portal to all federal, state and local government web resources and services.